sensor_id;sensor_type;location;lat;lon;timestamp;P1;durP1;ratioP1;P2;durP2;ratioP2
36233;SDS011;43467;50.890;5.982;2023-03-23T00:01:23;4.50;;;2.97;;
36233;SDS011;43467;50.890;5.982;2023-03-23T00:03:51;6.97;;;3.95;;
36233;SDS011;43467;50.890;5.982;2023-03-23T00:06:19;5.38;;;3.08;;
36233;SDS011;43467;50.890;5.982;2023-03-23T00:08:49;6.05;;;3.40;;
36233;SDS011;43467;50.890;5.982;2023-03-23T00:11:21;6.85;;;3.85;;
36233;SDS011;43467;50.890;5.982;2023-03-23T00:13:50;7.18;;;3.30;;
36233;SDS011;43467;50.890;5.982;2023-03-23T00:16:16;4.63;;;3.38;;
36233;SDS011;43467;50.890;5.982;2023-03-23T00:18:44;6.45;;;3.72;;
36233;SDS011;43467;50.890;5.982;2023-03-23T00:21:09;7.47;;;3.78;;
36233;SDS011;43467;50.890;5.982;2023-03-23T00:23:35;4.45;;;2.97;;
36233;SDS011;43467;50.890;5.982;2023-03-23T00:26:00;6.55;;;3.72;;
36233;SDS011;43467;50.890;5.982;2023-03-23T00:28:27;8.32;;;3.60;;
36233;SDS011;43467;50.890;5.982;2023-03-23T00:30:56;5.93;;;3.65;;
36233;SDS011;43467;50.890;5.982;2023-03-23T00:33:23;5.60;;;3.47;;
36233;SDS011;43467;50.890;5.982;2023-03-23T00:35:51;7.82;;;3.38;;
36233;SDS011;43467;50.890;5.982;2023-03-23T00:38:18;5.72;;;2.83;;
36233;SDS011;43467;50.890;5.982;2023-03-23T00:40:44;6.63;;;2.90;;
36233;SDS011;43467;50.890;5.982;2023-03-23T00:43:12;6.30;;;3.60;;
36233;SDS011;43467;50.890;5.982;2023-03-23T00:45:38;6.55;;;3.20;;
36233;SDS011;43467;50.890;5.982;2023-03-23T00:48:04;3.70;;;3.08;;
36233;SDS011;43467;50.890;5.982;2023-03-23T00:50:30;6.13;;;3.15;;
36233;SDS011;43467;50.890;5.982;2023-03-23T00:52:56;4.15;;;3.25;;
36233;SDS011;43467;50.890;5.982;2023-03-23T00:58:13;6.50;;;3.38;;
36233;SDS011;43467;50.890;5.982;2023-03-23T01:00:41;8.35;;;3.97;;
36233;SDS011;43467;50.890;5.982;2023-03-23T01:03:07;8.10;;;3.53;;
36233;SDS011;43467;50.890;5.982;2023-03-23T01:05:37;4.65;;;3.25;;
36233;SDS011;43467;50.890;5.982;2023-03-23T01:08:04;8.75;;;3.45;;
36233;SDS011;43467;50.890;5.982;2023-03-23T01:10:30;5.75;;;3.50;;
36233;SDS011;43467;50.890;5.982;2023-03-23T01:12:58;7.72;;;3.45;;
36233;SDS011;43467;50.890;5.982;2023-03-23T01:15:27;6.72;;;3.53;;
36233;SDS011;43467;50.890;5.982;2023-03-23T01:17:54;5.68;;;3.80;;
36233;SDS011;43467;50.890;5.982;2023-03-23T01:20:20;6.70;;;4.25;;
36233;SDS011;43467;50.890;5.982;2023-03-23T01:22:46;5.60;;;3.38;;
36233;SDS011;43467;50.890;5.982;2023-03-23T01:25:12;8.73;;;3.30;;
36233;SDS011;43467;50.890;5.982;2023-03-23T01:27:38;7.13;;;3.95;;
36233;SDS011;43467;50.890;5.982;2023-03-23T01:30:05;4.80;;;3.47;;
36233;SDS011;43467;50.890;5.982;2023-03-23T01:32:32;5.43;;;3.53;;
36233;SDS011;43467;50.890;5.982;2023-03-23T01:34:58;7.07;;;3.75;;
36233;SDS011;43467;50.890;5.982;2023-03-23T01:37:23;6.05;;;3.63;;
36233;SDS011;43467;50.890;5.982;2023-03-23T01:39:51;5.28;;;3.28;;
36233;SDS011;43467;50.890;5.982;2023-03-23T01:42:23;4.80;;;3.28;;
36233;SDS011;43467;50.890;5.982;2023-03-23T01:47:15;5.95;;;3.55;;
36233;SDS011;43467;50.890;5.982;2023-03-23T01:49:46;5.25;;;2.88;;
36233;SDS011;43467;50.890;5.982;2023-03-23T01:52:16;3.42;;;2.80;;
36233;SDS011;43467;50.890;5.982;2023-03-23T01:54:48;3.78;;;2.83;;
36233;SDS011;43467;50.890;5.982;2023-03-23T01:57:16;4.38;;;2.92;;
36233;SDS011;43467;50.890;5.982;2023-03-23T01:59:45;5.25;;;2.90;;
36233;SDS011;43467;50.890;5.982;2023-03-23T02:02:14;5.43;;;2.83;;
36233;SDS011;43467;50.890;5.982;2023-03-23T02:04:41;2.80;;;2.28;;
36233;SDS011;43467;50.890;5.982;2023-03-23T02:07:07;3.75;;;2.95;;
36233;SDS011;43467;50.890;5.982;2023-03-23T02:09:34;6.10;;;2.80;;
36233;SDS011;43467;50.890;5.982;2023-03-23T02:12:00;4.40;;;2.28;;
36233;SDS011;43467;50.890;5.982;2023-03-23T02:14:26;5.25;;;2.90;;
36233;SDS011;43467;50.890;5.982;2023-03-23T02:16:59;4.60;;;2.78;;
36233;SDS011;43467;50.890;5.982;2023-03-23T02:27:47;6.30;;;2.78;;
36233;SDS011;43467;50.890;5.982;2023-03-23T02:33:35;3.00;;;2.65;;
36233;SDS011;43467;50.890;5.982;2023-03-23T02:36:12;4.88;;;2.92;;
36233;SDS011;43467;50.890;5.982;2023-03-23T02:39:01;4.03;;;3.05;;
36233;SDS011;43467;50.890;5.982;2023-03-23T02:41:29;4.15;;;2.72;;
36233;SDS011;43467;50.890;5.982;2023-03-23T02:43:58;3.65;;;2.70;;
36233;SDS011;43467;50.890;5.982;2023-03-23T02:46:27;6.38;;;2.80;;
36233;SDS011;43467;50.890;5.982;2023-03-23T02:48:54;3.45;;;2.65;;
36233;SDS011;43467;50.890;5.982;2023-03-23T02:51:22;3.47;;;2.80;;
36233;SDS011;43467;50.890;5.982;2023-03-23T02:53:50;3.35;;;2.72;;
36233;SDS011;43467;50.890;5.982;2023-03-23T02:56:18;5.50;;;3.63;;
36233;SDS011;43467;50.890;5.982;2023-03-23T02:58:45;4.22;;;2.58;;
36233;SDS011;43467;50.890;5.982;2023-03-23T03:03:57;3.45;;;2.92;;
36233;SDS011;43467;50.890;5.982;2023-03-23T03:09:02;3.17;;;2.75;;
36233;SDS011;43467;50.890;5.982;2023-03-23T03:11:35;3.97;;;2.83;;
36233;SDS011;43467;50.890;5.982;2023-03-23T03:14:05;4.90;;;3.28;;
36233;SDS011;43467;50.890;5.982;2023-03-23T03:17:02;5.25;;;3.00;;
36233;SDS011;43467;50.890;5.982;2023-03-23T03:19:34;3.40;;;2.85;;
36233;SDS011;43467;50.890;5.982;2023-03-23T03:22:02;4.03;;;2.80;;
36233;SDS011;43467;50.890;5.982;2023-03-23T03:24:30;4.50;;;2.97;;
36233;SDS011;43467;50.890;5.982;2023-03-23T03:26:56;4.57;;;3.03;;
36233;SDS011;43467;50.890;5.982;2023-03-23T03:29:25;3.92;;;3.15;;
36233;SDS011;43467;50.890;5.982;2023-03-23T03:31:54;3.22;;;2.85;;
36233;SDS011;43467;50.890;5.982;2023-03-23T03:34:21;6.20;;;3.00;;
36233;SDS011;43467;50.890;5.982;2023-03-23T03:36:49;4.43;;;3.10;;
36233;SDS011;43467;50.890;5.982;2023-03-23T03:39:17;3.33;;;2.70;;
36233;SDS011;43467;50.890;5.982;2023-03-23T03:41:45;4.63;;;2.75;;
36233;SDS011;43467;50.890;5.982;2023-03-23T03:44:11;5.60;;;3.30;;
36233;SDS011;43467;50.890;5.982;2023-03-23T03:46:37;4.05;;;3.08;;
36233;SDS011;43467;50.890;5.982;2023-03-23T03:49:04;4.10;;;3.08;;
36233;SDS011;43467;50.890;5.982;2023-03-23T03:51:31;4.50;;;3.10;;
36233;SDS011;43467;50.890;5.982;2023-03-23T03:53:57;4.45;;;3.50;;
36233;SDS011;43467;50.890;5.982;2023-03-23T03:56:23;4.15;;;2.80;;
36233;SDS011;43467;50.890;5.982;2023-03-23T03:58:49;3.13;;;2.72;;
36233;SDS011;43467;50.890;5.982;2023-03-23T04:01:16;3.28;;;2.97;;
36233;SDS011;43467;50.890;5.982;2023-03-23T04:03:43;4.13;;;3.10;;
36233;SDS011;43467;50.890;5.982;2023-03-23T04:06:09;3.85;;;3.03;;
36233;SDS011;43467;50.890;5.982;2023-03-23T04:08:35;4.50;;;3.28;;
36233;SDS011;43467;50.890;5.982;2023-03-23T04:11:02;3.30;;;2.90;;
36233;SDS011;43467;50.890;5.982;2023-03-23T04:13:29;4.07;;;3.22;;
36233;SDS011;43467;50.890;5.982;2023-03-23T04:15:54;4.55;;;3.15;;
36233;SDS011;43467;50.890;5.982;2023-03-23T04:18:20;5.00;;;2.97;;
36233;SDS011;43467;50.890;5.982;2023-03-23T04:20:47;5.35;;;3.45;;
36233;SDS011;43467;50.890;5.982;2023-03-23T04:23:17;5.13;;;3.45;;
36233;SDS011;43467;50.890;5.982;2023-03-23T04:25:48;7.22;;;2.95;;
36233;SDS011;43467;50.890;5.982;2023-03-23T04:28:15;7.93;;;3.90;;
36233;SDS011;43467;50.890;5.982;2023-03-23T04:30:43;7.25;;;3.65;;
36233;SDS011;43467;50.890;5.982;2023-03-23T04:33:10;5.63;;;3.80;;
36233;SDS011;43467;50.890;5.982;2023-03-23T04:35:43;3.40;;;3.10;;
36233;SDS011;43467;50.890;5.982;2023-03-23T04:38:10;4.38;;;2.92;;
36233;SDS011;43467;50.890;5.982;2023-03-23T04:40:37;3.00;;;2.70;;
36233;SDS011;43467;50.890;5.982;2023-03-23T04:43:03;5.43;;;3.10;;
36233;SDS011;43467;50.890;5.982;2023-03-23T04:45:32;3.75;;;2.90;;
36233;SDS011;43467;50.890;5.982;2023-03-23T04:47:59;6.75;;;3.38;;
36233;SDS011;43467;50.890;5.982;2023-03-23T04:50:29;5.82;;;3.08;;
36233;SDS011;43467;50.890;5.982;2023-03-23T04:52:57;6.15;;;3.40;;
36233;SDS011;43467;50.890;5.982;2023-03-23T04:55:24;4.40;;;2.40;;
36233;SDS011;43467;50.890;5.982;2023-03-23T04:57:50;5.50;;;3.30;;
36233;SDS011;43467;50.890;5.982;2023-03-23T05:00:17;4.63;;;2.85;;
36233;SDS011;43467;50.890;5.982;2023-03-23T05:02:44;6.30;;;3.05;;
36233;SDS011;43467;50.890;5.982;2023-03-23T05:05:16;9.10;;;3.17;;
36233;SDS011;43467;50.890;5.982;2023-03-23T05:07:43;3.22;;;2.83;;
36233;SDS011;43467;50.890;5.982;2023-03-23T05:10:09;4.97;;;3.38;;
36233;SDS011;43467;50.890;5.982;2023-03-23T05:12:36;3.78;;;2.88;;
36233;SDS011;43467;50.890;5.982;2023-03-23T05:15:02;4.75;;;3.10;;
36233;SDS011;43467;50.890;5.982;2023-03-23T05:17:28;3.70;;;2.70;;
36233;SDS011;43467;50.890;5.982;2023-03-23T05:19:55;7.18;;;2.70;;
36233;SDS011;43467;50.890;5.982;2023-03-23T05:22:21;3.80;;;2.72;;
36233;SDS011;43467;50.890;5.982;2023-03-23T05:24:48;5.32;;;2.90;;
36233;SDS011;43467;50.890;5.982;2023-03-23T05:27:16;5.53;;;2.63;;
36233;SDS011;43467;50.890;5.982;2023-03-23T05:29:42;7.18;;;2.83;;
36233;SDS011;43467;50.890;5.982;2023-03-23T05:32:08;4.70;;;2.40;;
36233;SDS011;43467;50.890;5.982;2023-03-23T05:34:34;5.80;;;2.60;;
36233;SDS011;43467;50.890;5.982;2023-03-23T05:37:00;3.00;;;2.10;;
36233;SDS011;43467;50.890;5.982;2023-03-23T05:39:28;6.18;;;2.70;;
36233;SDS011;43467;50.890;5.982;2023-03-23T05:41:54;5.85;;;2.40;;
36233;SDS011;43467;50.890;5.982;2023-03-23T05:44:20;5.28;;;2.63;;
36233;SDS011;43467;50.890;5.982;2023-03-23T05:46:46;6.85;;;2.70;;
36233;SDS011;43467;50.890;5.982;2023-03-23T05:49:12;7.82;;;2.95;;
36233;SDS011;43467;50.890;5.982;2023-03-23T05:51:38;6.72;;;2.65;;
36233;SDS011;43467;50.890;5.982;2023-03-23T05:54:04;7.53;;;2.17;;
36233;SDS011;43467;50.890;5.982;2023-03-23T05:56:30;7.18;;;2.47;;
36233;SDS011;43467;50.890;5.982;2023-03-23T05:58:56;4.93;;;2.30;;
36233;SDS011;43467;50.890;5.982;2023-03-23T06:01:22;4.57;;;2.33;;
36233;SDS011;43467;50.890;5.982;2023-03-23T06:03:48;6.63;;;2.28;;
36233;SDS011;43467;50.890;5.982;2023-03-23T06:06:16;4.43;;;2.38;;
36233;SDS011;43467;50.890;5.982;2023-03-23T06:08:41;4.63;;;2.10;;
36233;SDS011;43467;50.890;5.982;2023-03-23T06:11:07;7.13;;;2.22;;
36233;SDS011;43467;50.890;5.982;2023-03-23T06:13:33;6.20;;;2.40;;
36233;SDS011;43467;50.890;5.982;2023-03-23T06:15:58;4.25;;;2.03;;
36233;SDS011;43467;50.890;5.982;2023-03-23T06:18:24;5.57;;;2.33;;
36233;SDS011;43467;50.890;5.982;2023-03-23T06:20:50;2.90;;;1.90;;
36233;SDS011;43467;50.890;5.982;2023-03-23T06:23:17;7.70;;;2.30;;
36233;SDS011;43467;50.890;5.982;2023-03-23T06:25:42;2.90;;;1.75;;
36233;SDS011;43467;50.890;5.982;2023-03-23T06:28:09;4.47;;;2.25;;
36233;SDS011;43467;50.890;5.982;2023-03-23T06:30:34;5.47;;;2.35;;
36233;SDS011;43467;50.890;5.982;2023-03-23T06:33:01;6.28;;;2.20;;
36233;SDS011;43467;50.890;5.982;2023-03-23T06:35:30;4.18;;;2.15;;
36233;SDS011;43467;50.890;5.982;2023-03-23T06:37:57;5.13;;;2.10;;
36233;SDS011;43467;50.890;5.982;2023-03-23T06:40:26;7.38;;;2.22;;
36233;SDS011;43467;50.890;5.982;2023-03-23T06:42:52;5.28;;;2.03;;
36233;SDS011;43467;50.890;5.982;2023-03-23T06:45:18;3.95;;;2.08;;
36233;SDS011;43467;50.890;5.982;2023-03-23T06:47:45;5.35;;;2.00;;
36233;SDS011;43467;50.890;5.982;2023-03-23T06:50:13;6.28;;;1.98;;
36233;SDS011;43467;50.890;5.982;2023-03-23T06:52:40;4.05;;;1.85;;
36233;SDS011;43467;50.890;5.982;2023-03-23T06:55:06;6.95;;;2.38;;
36233;SDS011;43467;50.890;5.982;2023-03-23T06:57:31;4.07;;;1.90;;
36233;SDS011;43467;50.890;5.982;2023-03-23T06:59:57;2.85;;;1.60;;
36233;SDS011;43467;50.890;5.982;2023-03-23T07:02:23;3.05;;;1.88;;
36233;SDS011;43467;50.890;5.982;2023-03-23T07:04:48;3.97;;;1.90;;
36233;SDS011;43467;50.890;5.982;2023-03-23T07:07:14;7.50;;;2.38;;
36233;SDS011;43467;50.890;5.982;2023-03-23T07:09:43;5.60;;;1.80;;
36233;SDS011;43467;50.890;5.982;2023-03-23T07:12:09;5.45;;;2.00;;
36233;SDS011;43467;50.890;5.982;2023-03-23T07:14:34;4.22;;;1.73;;
36233;SDS011;43467;50.890;5.982;2023-03-23T07:17:00;4.63;;;2.00;;
36233;SDS011;43467;50.890;5.982;2023-03-23T07:19:27;7.07;;;1.83;;
36233;SDS011;43467;50.890;5.982;2023-03-23T07:21:52;2.80;;;1.98;;
36233;SDS011;43467;50.890;5.982;2023-03-23T07:24:18;3.30;;;1.92;;
36233;SDS011;43467;50.890;5.982;2023-03-23T07:26:44;6.57;;;2.25;;
36233;SDS011;43467;50.890;5.982;2023-03-23T07:29:09;5.28;;;1.77;;
36233;SDS011;43467;50.890;5.982;2023-03-23T07:31:35;7.03;;;2.17;;
36233;SDS011;43467;50.890;5.982;2023-03-23T07:34:01;9.88;;;2.85;;
36233;SDS011;43467;50.890;5.982;2023-03-23T07:36:27;2.97;;;1.80;;
36233;SDS011;43467;50.890;5.982;2023-03-23T07:38:53;5.18;;;2.10;;
36233;SDS011;43467;50.890;5.982;2023-03-23T07:41:19;5.78;;;1.90;;
36233;SDS011;43467;50.890;5.982;2023-03-23T07:43:45;5.38;;;1.90;;
36233;SDS011;43467;50.890;5.982;2023-03-23T07:46:11;4.32;;;2.20;;
36233;SDS011;43467;50.890;5.982;2023-03-23T07:48:37;3.85;;;1.95;;
36233;SDS011;43467;50.890;5.982;2023-03-23T07:51:03;6.18;;;2.35;;
36233;SDS011;43467;50.890;5.982;2023-03-23T07:53:30;5.72;;;2.38;;
36233;SDS011;43467;50.890;5.982;2023-03-23T07:55:55;3.58;;;2.10;;
36233;SDS011;43467;50.890;5.982;2023-03-23T07:58:21;5.65;;;2.50;;
36233;SDS011;43467;50.890;5.982;2023-03-23T08:00:46;5.03;;;1.65;;
36233;SDS011;43467;50.890;5.982;2023-03-23T08:03:14;5.10;;;2.22;;
36233;SDS011;43467;50.890;5.982;2023-03-23T08:05:40;8.85;;;2.58;;
36233;SDS011;43467;50.890;5.982;2023-03-23T08:08:07;4.25;;;2.05;;
36233;SDS011;43467;50.890;5.982;2023-03-23T08:10:33;4.43;;;1.90;;
36233;SDS011;43467;50.890;5.982;2023-03-23T08:12:58;8.13;;;2.35;;
36233;SDS011;43467;50.890;5.982;2023-03-23T08:15:24;5.03;;;2.10;;
36233;SDS011;43467;50.890;5.982;2023-03-23T08:17:51;7.55;;;1.95;;
36233;SDS011;43467;50.890;5.982;2023-03-23T08:20:17;7.30;;;2.33;;
36233;SDS011;43467;50.890;5.982;2023-03-23T08:22:44;9.50;;;2.60;;
36233;SDS011;43467;50.890;5.982;2023-03-23T08:25:13;7.35;;;2.00;;
36233;SDS011;43467;50.890;5.982;2023-03-23T08:27:39;5.90;;;1.88;;
36233;SDS011;43467;50.890;5.982;2023-03-23T08:30:08;4.43;;;1.80;;
36233;SDS011;43467;50.890;5.982;2023-03-23T08:32:35;9.60;;;2.42;;
36233;SDS011;43467;50.890;5.982;2023-03-23T08:35:01;6.60;;;2.22;;
36233;SDS011;43467;50.890;5.982;2023-03-23T08:37:26;7.30;;;2.20;;
36233;SDS011;43467;50.890;5.982;2023-03-23T08:39:52;5.70;;;2.10;;
36233;SDS011;43467;50.890;5.982;2023-03-23T08:42:19;4.78;;;2.05;;
36233;SDS011;43467;50.890;5.982;2023-03-23T08:44:45;5.95;;;2.38;;
36233;SDS011;43467;50.890;5.982;2023-03-23T08:47:10;5.55;;;1.90;;
36233;SDS011;43467;50.890;5.982;2023-03-23T08:49:36;7.72;;;1.80;;
36233;SDS011;43467;50.890;5.982;2023-03-23T08:52:02;6.22;;;2.00;;
36233;SDS011;43467;50.890;5.982;2023-03-23T08:54:28;5.38;;;2.20;;
36233;SDS011;43467;50.890;5.982;2023-03-23T08:56:59;3.58;;;1.50;;
36233;SDS011;43467;50.890;5.982;2023-03-23T08:59:25;6.13;;;1.90;;
36233;SDS011;43467;50.890;5.982;2023-03-23T09:01:52;5.20;;;1.70;;
36233;SDS011;43467;50.890;5.982;2023-03-23T09:04:17;4.38;;;2.15;;
36233;SDS011;43467;50.890;5.982;2023-03-23T09:06:43;3.72;;;1.80;;
36233;SDS011;43467;50.890;5.982;2023-03-23T09:09:10;5.90;;;1.90;;
36233;SDS011;43467;50.890;5.982;2023-03-23T09:11:36;5.32;;;2.17;;
36233;SDS011;43467;50.890;5.982;2023-03-23T09:14:03;5.93;;;2.10;;
36233;SDS011;43467;50.890;5.982;2023-03-23T09:16:31;5.93;;;2.03;;
36233;SDS011;43467;50.890;5.982;2023-03-23T09:18:57;5.80;;;1.85;;
36233;SDS011;43467;50.890;5.982;2023-03-23T09:21:23;7.60;;;1.92;;
36233;SDS011;43467;50.890;5.982;2023-03-23T09:23:50;8.88;;;1.98;;
36233;SDS011;43467;50.890;5.982;2023-03-23T09:26:16;6.57;;;2.00;;
36233;SDS011;43467;50.890;5.982;2023-03-23T09:28:42;5.22;;;2.03;;
36233;SDS011;43467;50.890;5.982;2023-03-23T09:31:09;5.30;;;1.95;;
36233;SDS011;43467;50.890;5.982;2023-03-23T09:33:36;4.15;;;1.52;;
36233;SDS011;43467;50.890;5.982;2023-03-23T09:36:02;8.15;;;1.90;;
36233;SDS011;43467;50.890;5.982;2023-03-23T09:38:28;4.70;;;1.60;;
36233;SDS011;43467;50.890;5.982;2023-03-23T09:53:52;2.92;;;1.40;;
36233;SDS011;43467;50.890;5.982;2023-03-23T09:56:21;4.30;;;1.70;;
36233;SDS011;43467;50.890;5.982;2023-03-23T10:01:26;3.05;;;1.52;;
36233;SDS011;43467;50.890;5.982;2023-03-23T10:06:51;2.28;;;1.40;;
36233;SDS011;43467;50.890;5.982;2023-03-23T10:09:21;3.95;;;1.38;;
36233;SDS011;43467;50.890;5.982;2023-03-23T10:14:22;3.85;;;1.50;;
36233;SDS011;43467;50.890;5.982;2023-03-23T10:17:18;3.92;;;1.45;;
36233;SDS011;43467;50.890;5.982;2023-03-23T10:22:52;4.80;;;1.52;;
36233;SDS011;43467;50.890;5.982;2023-03-23T10:25:19;3.33;;;1.33;;
36233;SDS011;43467;50.890;5.982;2023-03-23T10:27:54;4.75;;;1.70;;
36233;SDS011;43467;50.890;5.982;2023-03-23T10:30:42;2.95;;;1.58;;
36233;SDS011;43467;50.890;5.982;2023-03-23T10:33:19;5.25;;;1.70;;
36233;SDS011;43467;50.890;5.982;2023-03-23T10:36:05;2.55;;;1.67;;
36233;SDS011;43467;50.890;5.982;2023-03-23T10:41:04;3.10;;;1.70;;
36233;SDS011;43467;50.890;5.982;2023-03-23T10:43:38;2.38;;;1.45;;
36233;SDS011;43467;50.890;5.982;2023-03-23T10:46:22;2.88;;;1.60;;
36233;SDS011;43467;50.890;5.982;2023-03-23T10:48:50;2.85;;;1.50;;
36233;SDS011;43467;50.890;5.982;2023-03-23T10:51:18;4.15;;;1.50;;
36233;SDS011;43467;50.890;5.982;2023-03-23T10:53:51;3.55;;;1.40;;
36233;SDS011;43467;50.890;5.982;2023-03-23T10:56:24;4.85;;;1.48;;
36233;SDS011;43467;50.890;5.982;2023-03-23T11:01:43;3.53;;;1.50;;
36233;SDS011;43467;50.890;5.982;2023-03-23T11:04:11;4.40;;;1.70;;
36233;SDS011;43467;50.890;5.982;2023-03-23T11:06:38;2.25;;;1.17;;
36233;SDS011;43467;50.890;5.982;2023-03-23T11:11:43;4.70;;;1.98;;
36233;SDS011;43467;50.890;5.982;2023-03-23T11:14:26;3.42;;;1.52;;
36233;SDS011;43467;50.890;5.982;2023-03-23T11:17:02;4.27;;;1.57;;
36233;SDS011;43467;50.890;5.982;2023-03-23T11:24:31;5.32;;;2.30;;
36233;SDS011;43467;50.890;5.982;2023-03-23T11:26:58;3.03;;;1.92;;
36233;SDS011;43467;50.890;5.982;2023-03-23T11:29:25;4.00;;;1.70;;
36233;SDS011;43467;50.890;5.982;2023-03-23T11:32:01;6.22;;;2.28;;
36233;SDS011;43467;50.890;5.982;2023-03-23T11:34:32;3.90;;;2.15;;
36233;SDS011;43467;50.890;5.982;2023-03-23T11:37:11;3.00;;;1.98;;
36233;SDS011;43467;50.890;5.982;2023-03-23T11:39:47;3.22;;;1.88;;
36233;SDS011;43467;50.890;5.982;2023-03-23T11:45:07;5.17;;;2.40;;
36233;SDS011;43467;50.890;5.982;2023-03-23T11:47:43;5.22;;;1.70;;
36233;SDS011;43467;50.890;5.982;2023-03-23T11:54:02;3.47;;;2.10;;
36233;SDS011;43467;50.890;5.982;2023-03-23T11:58:55;3.92;;;2.22;;
36233;SDS011;43467;50.890;5.982;2023-03-23T12:21:10;5.18;;;1.90;;
36233;SDS011;43467;50.890;5.982;2023-03-23T12:23:42;6.65;;;1.60;;
36233;SDS011;43467;50.890;5.982;2023-03-23T12:33:49;6.40;;;2.72;;
36233;SDS011;43467;50.890;5.982;2023-03-23T12:36:30;5.45;;;2.13;;
36233;SDS011;43467;50.890;5.982;2023-03-23T12:39:11;6.30;;;2.08;;
36233;SDS011;43467;50.890;5.982;2023-03-23T12:44:27;5.47;;;1.88;;
36233;SDS011;43467;50.890;5.982;2023-03-23T12:47:11;5.30;;;1.95;;
36233;SDS011;43467;50.890;5.982;2023-03-23T12:49:56;6.45;;;1.95;;
36233;SDS011;43467;50.890;5.982;2023-03-23T12:52:55;3.85;;;2.15;;
36233;SDS011;43467;50.890;5.982;2023-03-23T12:56:24;4.60;;;1.90;;
36233;SDS011;43467;50.890;5.982;2023-03-23T12:58:34;5.00;;;2.08;;
36233;SDS011;43467;50.890;5.982;2023-03-23T13:01:17;3.45;;;2.10;;
36233;SDS011;43467;50.890;5.982;2023-03-23T13:04:01;4.47;;;2.00;;
36233;SDS011;43467;50.890;5.982;2023-03-23T13:09:11;6.65;;;2.10;;
36233;SDS011;43467;50.890;5.982;2023-03-23T13:11:40;3.20;;;1.80;;
36233;SDS011;43467;50.890;5.982;2023-03-23T13:16:58;5.03;;;1.67;;
36233;SDS011;43467;50.890;5.982;2023-03-23T13:22:45;7.80;;;2.05;;
36233;SDS011;43467;50.890;5.982;2023-03-23T13:28:04;6.95;;;2.40;;
36233;SDS011;43467;50.890;5.982;2023-03-23T13:30:30;6.57;;;2.72;;
36233;SDS011;43467;50.890;5.982;2023-03-23T13:33:05;4.63;;;2.83;;
36233;SDS011;43467;50.890;5.982;2023-03-23T13:35:37;6.93;;;2.25;;
36233;SDS011;43467;50.890;5.982;2023-03-23T13:38:18;6.88;;;2.90;;
36233;SDS011;43467;50.890;5.982;2023-03-23T13:40:47;7.30;;;2.60;;
36233;SDS011;43467;50.890;5.982;2023-03-23T13:43:12;9.85;;;3.40;;
36233;SDS011;43467;50.890;5.982;2023-03-23T13:45:45;7.78;;;3.72;;
36233;SDS011;43467;50.890;5.982;2023-03-23T13:50:52;8.13;;;3.00;;
36233;SDS011;43467;50.890;5.982;2023-03-23T13:53:25;7.57;;;2.70;;
36233;SDS011;43467;50.890;5.982;2023-03-23T13:56:17;10.35;;;2.75;;
36233;SDS011;43467;50.890;5.982;2023-03-23T13:58:49;8.50;;;3.00;;
36233;SDS011;43467;50.890;5.982;2023-03-23T14:01:35;8.93;;;2.72;;
36233;SDS011;43467;50.890;5.982;2023-03-23T14:04:04;9.18;;;3.20;;
36233;SDS011;43467;50.890;5.982;2023-03-23T14:06:35;9.48;;;3.60;;
36233;SDS011;43467;50.890;5.982;2023-03-23T14:09:43;9.25;;;3.30;;
36233;SDS011;43467;50.890;5.982;2023-03-23T14:11:57;11.23;;;3.15;;
36233;SDS011;43467;50.890;5.982;2023-03-23T14:14:31;7.60;;;3.25;;
36233;SDS011;43467;50.890;5.982;2023-03-23T14:17:08;10.25;;;3.50;;
36233;SDS011;43467;50.890;5.982;2023-03-23T14:19:51;6.45;;;3.38;;
36233;SDS011;43467;50.890;5.982;2023-03-23T14:22:41;8.18;;;3.28;;
36233;SDS011;43467;50.890;5.982;2023-03-23T14:25:12;11.00;;;3.33;;
36233;SDS011;43467;50.890;5.982;2023-03-23T14:27:40;7.40;;;3.17;;
36233;SDS011;43467;50.890;5.982;2023-03-23T14:30:13;13.82;;;3.63;;
36233;SDS011;43467;50.890;5.982;2023-03-23T14:32:40;10.77;;;3.75;;
36233;SDS011;43467;50.890;5.982;2023-03-23T14:35:08;8.70;;;3.75;;
36233;SDS011;43467;50.890;5.982;2023-03-23T14:37:40;12.00;;;3.85;;
36233;SDS011;43467;50.890;5.982;2023-03-23T14:40:05;11.98;;;4.03;;
36233;SDS011;43467;50.890;5.982;2023-03-23T14:42:36;8.70;;;3.45;;
36233;SDS011;43467;50.890;5.982;2023-03-23T14:45:03;7.35;;;3.47;;
36233;SDS011;43467;50.890;5.982;2023-03-23T14:47:32;7.50;;;2.90;;
36233;SDS011;43467;50.890;5.982;2023-03-23T14:50:02;4.30;;;2.65;;
36233;SDS011;43467;50.890;5.982;2023-03-23T14:52:34;6.95;;;2.88;;
36233;SDS011;43467;50.890;5.982;2023-03-23T14:55:11;7.07;;;2.80;;
36233;SDS011;43467;50.890;5.982;2023-03-23T14:57:47;6.20;;;2.78;;
36233;SDS011;43467;50.890;5.982;2023-03-23T15:00:14;6.93;;;2.40;;
36233;SDS011;43467;50.890;5.982;2023-03-23T15:02:44;7.07;;;2.38;;
36233;SDS011;43467;50.890;5.982;2023-03-23T15:05:25;8.25;;;2.67;;
36233;SDS011;43467;50.890;5.982;2023-03-23T15:08:00;9.18;;;3.05;;
36233;SDS011;43467;50.890;5.982;2023-03-23T15:10:29;10.50;;;3.15;;
36233;SDS011;43467;50.890;5.982;2023-03-23T15:12:54;6.75;;;2.45;;
36233;SDS011;43467;50.890;5.982;2023-03-23T15:15:33;6.18;;;2.50;;
36233;SDS011;43467;50.890;5.982;2023-03-23T15:18:00;8.27;;;2.40;;
36233;SDS011;43467;50.890;5.982;2023-03-23T15:20:28;5.75;;;2.25;;
36233;SDS011;43467;50.890;5.982;2023-03-23T15:23:14;4.95;;;2.53;;
36233;SDS011;43467;50.890;5.982;2023-03-23T15:25:47;8.15;;;2.53;;
36233;SDS011;43467;50.890;5.982;2023-03-23T15:28:22;5.88;;;2.40;;
36233;SDS011;43467;50.890;5.982;2023-03-23T15:30:55;8.07;;;2.80;;
36233;SDS011;43467;50.890;5.982;2023-03-23T15:33:23;5.82;;;2.15;;
36233;SDS011;43467;50.890;5.982;2023-03-23T15:35:54;6.70;;;2.50;;
36233;SDS011;43467;50.890;5.982;2023-03-23T15:40:57;6.28;;;1.95;;
36233;SDS011;43467;50.890;5.982;2023-03-23T15:43:33;8.43;;;2.40;;
36233;SDS011;43467;50.890;5.982;2023-03-23T15:46:01;6.85;;;2.58;;
36233;SDS011;43467;50.890;5.982;2023-03-23T15:48:49;10.70;;;3.20;;
36233;SDS011;43467;50.890;5.982;2023-03-23T15:51:25;7.32;;;2.72;;
36233;SDS011;43467;50.890;5.982;2023-03-23T15:53:53;8.02;;;2.92;;
36233;SDS011;43467;50.890;5.982;2023-03-23T15:56:19;8.75;;;2.78;;
36233;SDS011;43467;50.890;5.982;2023-03-23T15:58:45;5.85;;;2.80;;
36233;SDS011;43467;50.890;5.982;2023-03-23T16:01:15;10.20;;;3.33;;
36233;SDS011;43467;50.890;5.982;2023-03-23T16:03:53;9.50;;;2.75;;
36233;SDS011;43467;50.890;5.982;2023-03-23T16:06:22;20.33;;;9.35;;
36233;SDS011;43467;50.890;5.982;2023-03-23T16:08:50;19.25;;;9.88;;
36233;SDS011;43467;50.890;5.982;2023-03-23T16:11:16;15.98;;;6.18;;
36233;SDS011;43467;50.890;5.982;2023-03-23T16:13:42;13.20;;;5.05;;
36233;SDS011;43467;50.890;5.982;2023-03-23T16:16:13;8.05;;;3.05;;
36233;SDS011;43467;50.890;5.982;2023-03-23T16:18:44;8.05;;;3.00;;
36233;SDS011;43467;50.890;5.982;2023-03-23T16:21:09;9.07;;;3.17;;
36233;SDS011;43467;50.890;5.982;2023-03-23T16:23:35;10.63;;;3.28;;
36233;SDS011;43467;50.890;5.982;2023-03-23T16:26:00;9.25;;;2.65;;
36233;SDS011;43467;50.890;5.982;2023-03-23T16:28:26;8.93;;;2.53;;
36233;SDS011;43467;50.890;5.982;2023-03-23T16:30:51;7.15;;;2.70;;
36233;SDS011;43467;50.890;5.982;2023-03-23T16:33:17;7.50;;;2.83;;
36233;SDS011;43467;50.890;5.982;2023-03-23T16:35:42;7.13;;;2.83;;
36233;SDS011;43467;50.890;5.982;2023-03-23T16:38:12;11.85;;;3.22;;
36233;SDS011;43467;50.890;5.982;2023-03-23T16:40:40;11.02;;;2.83;;
36233;SDS011;43467;50.890;5.982;2023-03-23T16:43:07;7.82;;;2.75;;
36233;SDS011;43467;50.890;5.982;2023-03-23T16:45:33;6.03;;;2.90;;
36233;SDS011;43467;50.890;5.982;2023-03-23T16:47:58;10.07;;;2.85;;
36233;SDS011;43467;50.890;5.982;2023-03-23T16:50:25;8.23;;;3.20;;
36233;SDS011;43467;50.890;5.982;2023-03-23T16:52:52;9.18;;;3.70;;
36233;SDS011;43467;50.890;5.982;2023-03-23T16:55:17;6.35;;;2.58;;